Time;durP1;ratioP1;P1;durP2;ratioP2;P2;SDS_P1;SDS_P2;PMS_P1;PMS_P2;Temp;Humidity;BMP_temperature;BMP_pressure;BME280_temperature;BME280_humidity;BME280_pressure;Samples;Min_cycle;Max_cycle;Signal;HPM_P1;HPM_P2
2022/10/13 00:01:00;;;;;;;61.90;31.30;;;;;;;4.33;71.65;101211.02;126881;1278;107385;-74
2022/10/13 00:04:10;;;;;;;60.70;31.50;;;;;;;4.36;71.61;101211.04;127003;1278;107614;-75
2022/10/13 00:07:15;;;;;;;60.30;30.40;;;;;;;4.38;71.44;101212.69;126975;1279;107542;-75
2022/10/13 00:10:21;;;;;;;57.10;30.20;;;;;;;4.38;71.64;101210.77;127205;1278;107499;-76
2022/10/13 00:13:26;;;;;;;59.70;30.20;;;;;;;4.36;71.45;101210.71;126815;1279;107509;-74
2022/10/13 00:16:33;;;;;;;58.60;30.10;;;;;;;4.27;71.47;101206.58;126893;1271;106572;-74
2022/10/13 00:19:38;;;;;;;55.10;28.80;;;;;;;4.23;71.55;101204.05;127128;1279;107378;-76
2022/10/13 00:22:44;;;;;;;63.00;28.80;;;;;;;4.21;71.67;101202.56;127186;1271;107503;-76
2022/10/13 00:25:50;;;;;;;54.50;28.00;;;;;;;4.18;71.48;101198.15;127273;1278;106322;-76
2022/10/13 00:28:56;;;;;;;55.90;28.20;;;;;;;4.16;71.50;101201.10;127006;1278;107520;-73
2022/10/13 00:32:02;;;;;;;52.10;26.20;;;;;;;4.12;71.64;101202.40;127082;1279;108611;-74
2022/10/13 00:35:08;;;;;;;53.70;26.90;;;;;;;4.07;71.55;101199.13;126947;1286;106339;-74
2022/10/13 00:38:15;;;;;;;48.90;26.60;;;;;;;4.03;71.52;101200.41;126999;1278;107619;-75
2022/10/13 00:41:21;;;;;;;46.40;24.30;;;;;;;3.96;71.61;101201.34;126935;1286;107537;-73
2022/10/13 00:45:00;;;;;;;50.40;25.60;;;;;;;3.92;71.58;101198.75;127167;1278;107347;-79
2022/10/13 00:48:06;;;;;;;45.80;23.40;;;;;;;3.88;71.64;101195.45;127353;1278;107562;-79
2022/10/13 00:51:14;;;;;;;47.30;24.20;;;;;;;3.84;71.75;101196.24;127190;1272;107548;-78
2022/10/13 00:54:24;;;;;;;44.30;24.10;;;;;;;3.81;71.54;101191.26;127298;1286;107517;-77
2022/10/13 00:57:30;;;;;;;39.40;20.30;;;;;;;3.79;71.63;101187.17;127178;1272;108163;-78
2022/10/13 01:00:36;;;;;;;40.10;21.50;;;;;;;3.79;71.66;101189.10;127133;1279;107249;-78
2022/10/13 01:03:42;;;;;;;40.40;23.10;;;;;;;3.80;71.55;101181.11;127254;1278;107354;-78
2022/10/13 01:06:48;;;;;;;45.50;21.80;;;;;;;3.84;71.35;101183.39;127052;1278;107546;-78
2022/10/13 01:09:53;;;;;;;39.30;21.80;;;;;;;3.83;71.38;101180.08;127149;1286;107254;-78
2022/10/13 01:13:05;;;;;;;38.50;22.20;;;;;;;3.81;71.37;101176.72;127027;1286;107414;-79
2022/10/13 01:16:17;;;;;;;39.40;21.80;;;;;;;3.80;71.38;101180.47;127103;1279;107360;-79
2022/10/13 01:19:41;;;;;;;43.50;22.10;;;;;;;3.77;71.38;101179.17;127245;1279;108039;-79
2022/10/13 01:23:00;;;;;;;40.90;21.80;;;;;;;3.73;71.37;101176.61;126971;1278;107050;-78
2022/10/13 01:26:43;;;;;;;39.70;21.10;;;;;;;3.69;71.35;101174.56;127061;1282;106559;-79
2022/10/13 01:30:02;;;;;;;;;;;;;;;3.64;71.40;101164.06;126948;1278;107611;-77
2022/10/13 01:33:20;;;;;;;36.80;20.40;;;;;;;3.63;71.52;101167.84;126891;1278;107601;-78
2022/10/13 01:36:35;;;;;;;36.30;20.80;;;;;;;3.59;71.47;101165.08;127006;1278;105673;-78
2022/10/13 01:39:46;;;;;;;36.60;20.40;;;;;;;3.56;71.38;101161.55;127157;1279;107363;-78
2022/10/13 01:42:58;;;;;;;40.90;21.20;;;;;;;3.52;71.39;101155.44;127270;1280;108068;-78
2022/10/13 01:46:09;;;;;;;35.10;20.10;;;;;;;3.49;71.75;101152.04;126921;1278;107493;-78
2022/10/13 01:49:19;;;;;;;39.00;20.60;;;;;;;3.45;71.32;101147.70;126996;1278;107611;-78
2022/10/13 01:52:32;;;;;;;37.50;19.80;;;;;;;3.42;71.68;101145.25;126993;1278;107513;-78
2022/10/13 01:55:48;;;;;;;45.10;21.10;;;;;;;3.40;71.58;101142.16;126844;1278;107365;-78
2022/10/13 01:58:56;;;;;;;34.30;17.50;;;;;;;3.43;71.58;101136.58;126962;1282;105737;-78
2022/10/13 02:02:12;;;;;;;33.70;19.50;;;;;;;3.45;71.43;101136.30;127278;1278;106394;-75
2022/10/13 02:05:26;;;;;;;35.30;19.20;;;;;;;3.45;71.47;101130.46;127236;1278;106330;-75
2022/10/13 02:08:39;;;;;;;35.20;19.30;;;;;;;3.42;71.47;101126.78;127083;1286;108114;-73
2022/10/13 02:11:51;;;;;;;35.90;20.20;;;;;;;3.39;71.41;101120.77;127037;1279;107615;-74
2022/10/13 02:14:58;;;;;;;37.60;21.20;;;;;;;3.34;71.34;101122.80;127211;1278;107485;-75
2022/10/13 02:18:07;;;;;;;35.30;19.40;;;;;;;3.31;71.37;101119.63;127120;1278;107527;-73
2022/10/13 02:21:12;;;;;;;37.90;20.80;;;;;;;3.30;71.34;101125.17;126926;1278;107310;-73
2022/10/13 02:24:18;;;;;;;36.80;20.00;;;;;;;3.27;71.39;101129.22;126887;1278;107581;-74
2022/10/13 02:27:24;;;;;;;35.60;20.40;;;;;;;3.23;71.37;101131.01;127043;1286;107512;-73
2022/10/13 02:30:32;;;;;;;35.20;20.00;;;;;;;3.20;71.52;101124.14;126926;1279;107312;-77
2022/10/13 02:33:37;;;;;;;36.90;20.40;;;;;;;3.19;71.40;101122.30;127123;1279;107524;-74
2022/10/13 02:36:43;;;;;;;36.80;20.70;;;;;;;3.17;71.31;101117.46;127003;1286;107355;-74
2022/10/13 02:39:48;;;;;;;33.30;19.70;;;;;;;3.13;71.46;101115.00;126917;1272;107549;-74
2022/10/13 02:42:55;;;;;;;36.20;19.00;;;;;;;3.08;71.36;101117.89;127002;1286;105545;-74
2022/10/13 02:46:01;;;;;;;34.40;19.70;;;;;;;3.05;71.48;101116.84;127049;1278;107629;-75
2022/10/13 02:49:06;;;;;;;36.30;19.20;;;;;;;3.03;71.53;101117.70;126981;1283;107314;-74
2022/10/13 02:52:11;;;;;;;37.60;19.60;;;;;;;3.00;71.41;101118.02;126964;1279;108672;-74
2022/10/13 02:55:21;;;;;;;38.20;19.10;;;;;;;2.95;71.54;101117.06;126944;1286;107518;-77
2022/10/13 02:58:30;;;;;;;39.60;18.50;;;;;;;2.91;71.59;101117.05;127008;1278;106533;-76
2022/10/13 03:01:40;;;;;;;32.40;17.30;;;;;;;2.93;71.47;101110.30;127205;1278;107632;-75
2022/10/13 03:04:45;;;;;;;35.90;17.80;;;;;;;2.93;71.46;101107.98;127308;1279;107529;-72
2022/10/13 03:07:51;;;;;;;30.00;17.10;;;;;;;2.97;71.31;101105.55;126895;1279;107573;-71
2022/10/13 03:10:56;;;;;;;30.00;17.80;;;;;;;3.00;71.39;101109.38;126961;1278;107360;-73
2022/10/13 03:14:02;;;;;;;32.30;18.40;;;;;;;3.01;71.42;101107.40;126828;1286;107389;-72
2022/10/13 03:17:07;;;;;;;33.30;18.60;;;;;;;3.01;71.44;101112.16;126970;1286;107110;-72
2022/10/13 03:20:13;;;;;;;31.50;18.60;;;;;;;2.98;71.31;101107.75;127020;1279;107230;-73
2022/10/13 03:23:19;;;;;;;32.20;18.40;;;;;;;2.98;71.50;101106.36;127130;1279;107623;-73
2022/10/13 03:26:24;;;;;;;39.60;19.70;;;;;;;2.94;71.38;101107.63;127100;1286;107547;-72
2022/10/13 03:29:30;;;;;;;30.00;18.10;;;;;;;2.88;71.36;101102.47;126991;1278;107615;-73
2022/10/13 03:32:35;;;;;;;33.50;17.80;;;;;;;2.83;71.31;101103.66;127181;1285;107524;-73
2022/10/13 03:35:40;;;;;;;32.30;18.20;;;;;;;2.78;71.49;101105.48;127157;1279;107516;-72
2022/10/13 03:38:46;;;;;;;33.70;18.50;;;;;;;2.76;71.45;101104.00;127171;1272;107492;-72
2022/10/13 03:41:51;;;;;;;29.90;17.50;;;;;;;2.74;71.33;101101.83;126876;1286;108127;-74
2022/10/13 03:44:56;;;;;;;29.70;18.00;;;;;;;2.71;71.45;101105.32;127137;1286;107673;-72
2022/10/13 03:48:02;;;;;;;30.80;17.70;;;;;;;2.69;71.44;101110.00;127142;1278;108084;-72
2022/10/13 03:51:09;;;;;;;37.30;18.20;;;;;;;2.64;71.35;101110.77;127122;1278;107414;-72
2022/10/13 03:54:15;;;;;;;30.00;17.50;;;;;;;2.62;71.50;101108.44;127175;1279;108649;-74
2022/10/13 03:57:21;;;;;;;34.00;16.90;;;;;;;2.61;71.45;101108.14;127078;1279;107541;-73
2022/10/13 04:00:26;;;;;;;29.60;14.30;;;;;;;2.62;71.43;101104.58;127168;1286;107769;-72
2022/10/13 04:03:33;;;;;;;28.50;15.90;;;;;;;2.63;71.61;101105.23;127219;1284;107566;-73
2022/10/13 04:06:39;;;;;;;27.00;16.40;;;;;;;2.68;71.42;101105.48;126985;1271;107566;-72
2022/10/13 04:09:44;;;;;;;29.90;16.70;;;;;;;2.71;71.59;101107.64;126953;1279;107542;-72
2022/10/13 04:12:51;;;;;;;29.80;16.70;;;;;;;2.73;71.50;101105.91;127115;1279;107197;-71
2022/10/13 04:15:56;;;;;;;29.00;16.60;;;;;;;2.73;71.39;101107.32;127027;1279;106621;-73
2022/10/13 04:19:04;;;;;;;30.10;16.70;;;;;;;2.69;71.37;101105.10;127085;1279;106448;-73
2022/10/13 04:22:09;;;;;;;30.70;16.90;;;;;;;2.61;71.52;101107.09;127226;1286;107416;-73
2022/10/13 04:25:14;;;;;;;32.40;16.60;;;;;;;2.58;71.42;101106.52;127294;1278;107223;-73
2022/10/13 04:28:20;;;;;;;29.20;16.30;;;;;;;2.55;71.53;101106.50;127069;1280;107357;-71
2022/10/13 04:31:28;;;;;;;33.70;16.90;;;;;;;2.53;71.45;101107.86;126831;1279;107470;-71
2022/10/13 04:34:33;;;;;;;30.50;17.50;;;;;;;2.50;71.41;101101.69;127036;1278;107397;-72
2022/10/13 04:37:39;;;;;;;28.10;16.00;;;;;;;2.49;71.40;101101.77;127045;1278;106530;-71
2022/10/13 04:40:46;;;;;;;28.80;15.60;;;;;;;2.45;71.44;101101.77;127095;1278;107429;-72
2022/10/13 04:43:53;;;;;;;30.40;16.70;;;;;;;2.43;71.55;101106.97;127075;1285;107492;-72
2022/10/13 04:47:00;;;;;;;30.00;17.10;;;;;;;2.42;71.51;101108.30;126964;1286;107485;-73
2022/10/13 04:50:06;;;;;;;28.00;16.70;;;;;;;2.40;71.63;101113.10;127119;1285;107368;-72
2022/10/13 04:53:12;;;;;;;29.40;16.50;;;;;;;2.38;71.57;101115.33;126925;1278;106289;-73
2022/10/13 04:56:18;;;;;;;34.50;17.40;;;;;;;2.33;71.61;101119.05;127081;1277;107591;-72
2022/10/13 04:59:24;;;;;;;30.90;16.50;;;;;;;2.32;71.74;101120.00;126981;1286;107673;-74
2022/10/13 05:02:29;;;;;;;24.60;13.50;;;;;;;2.35;71.55;101121.95;127015;1284;107550;-71
2022/10/13 05:05:37;;;;;;;26.30;14.40;;;;;;;2.40;71.51;101117.87;127060;1286;107505;-74
2022/10/13 05:08:43;;;;;;;27.10;15.40;;;;;;;2.44;71.58;101117.98;127153;1272;107341;-71
2022/10/13 05:11:53;;;;;;;26.50;14.90;;;;;;;2.48;71.58;101120.56;126965;1278;108146;-72
2022/10/13 05:14:59;;;;;;;26.70;15.70;;;;;;;2.51;71.55;101117.80;126927;1280;109018;-77
2022/10/13 05:18:05;;;;;;;28.70;15.70;;;;;;;2.52;71.56;101117.95;126996;1271;108308;-73
2022/10/13 05:21:13;;;;;;;26.80;15.70;;;;;;;2.54;71.68;101119.20;127191;1279;107362;-71
2022/10/13 05:24:29;;;;;;;26.40;15.20;;;;;;;2.56;71.67;101122.11;127031;1279;107463;-73
2022/10/13 05:27:35;;;;;;;28.90;16.90;;;;;;;2.57;71.61;101121.34;126985;1285;107494;-76
2022/10/13 05:30:43;;;;;;;28.80;16.90;;;;;;;2.59;71.60;101120.36;126996;1278;107516;-76
2022/10/13 05:33:50;;;;;;;30.00;16.80;;;;;;;2.61;71.65;101120.09;127035;1278;107340;-75
2022/10/13 05:36:59;;;;;;;26.60;15.80;;;;;;;2.60;71.70;101116.77;126942;1279;107530;-75
2022/10/13 05:40:06;;;;;;;32.30;17.90;;;;;;;2.63;71.73;101119.09;126919;1278;106650;-74
2022/10/13 05:43:11;;;;;;;33.60;17.10;;;;;;;2.65;71.85;101122.83;127052;1278;106629;-75
2022/10/13 05:46:17;;;;;;;38.40;18.50;;;;;;;2.68;71.97;101120.44;127077;1279;107482;-74
2022/10/13 05:49:22;;;;;;;29.90;17.30;;;;;;;2.70;71.95;101123.29;127099;1285;107471;-74
2022/10/13 05:52:32;;;;;;;30.90;16.00;;;;;;;2.74;72.12;101125.54;127076;1284;107644;-75
2022/10/13 05:55:37;;;;;;;27.30;14.60;;;;;;;2.82;72.14;101122.50;126930;1284;107537;-75
2022/10/13 05:58:47;;;;;;;25.30;14.10;;;;;;;2.92;72.10;101119.81;126948;1279;107587;-74
2022/10/13 06:01:54;;;;;;;24.80;14.80;;;;;;;3.03;72.08;101120.64;126955;1285;107445;-73
2022/10/13 06:05:01;;;;;;;26.90;15.60;;;;;;;3.12;72.07;101119.25;127203;1284;108001;-76
2022/10/13 06:08:07;;;;;;;29.50;14.90;;;;;;;3.21;72.29;101124.61;126978;1279;107639;-77
2022/10/13 06:11:12;;;;;;;29.70;15.90;;;;;;;3.28;72.32;101124.20;127165;1279;107551;-78
2022/10/13 06:14:18;;;;;;;27.70;16.40;;;;;;;3.36;72.41;101130.45;127281;1279;107491;-78
2022/10/13 06:17:23;;;;;;;27.90;16.20;;;;;;;3.41;72.27;101128.61;127152;1278;107628;-77
2022/10/13 06:20:29;;;;;;;31.80;16.50;;;;;;;3.44;72.37;101127.19;127480;1285;107655;-77
2022/10/13 06:23:34;;;;;;;30.10;17.90;;;;;;;3.51;72.43;101134.36;127133;1278;107495;-76
2022/10/13 06:26:39;;;;;;;31.40;17.90;;;;;;;3.58;72.63;101131.02;127329;1272;108646;-78
2022/10/13 06:29:45;;;;;;;33.20;19.00;;;;;;;3.62;72.74;101129.17;127118;1280;107600;-76
2022/10/13 06:32:50;;;;;;;38.30;19.50;;;;;;;3.69;72.90;101129.84;127286;1279;107529;-76
2022/10/13 06:35:55;;;;;;;49.30;24.50;;;;;;;3.76;72.96;101135.76;127120;1286;107498;-79
2022/10/13 06:39:01;;;;;;;35.30;17.80;;;;;;;3.88;73.16;101134.05;127211;1278;107471;-79
2022/10/13 06:42:06;;;;;;;35.20;19.90;;;;;;;4.01;73.53;101128.89;127300;1281;106571;-79
2022/10/13 06:45:16;;;;;;;31.20;18.10;;;;;;;4.13;73.68;101122.35;127150;1280;107521;-81
2022/10/13 06:48:21;;;;;;;35.10;19.60;;;;;;;4.29;74.27;101114.73;126961;1286;107669;-79
2022/10/13 06:51:27;;;;;;;34.40;19.40;;;;;;;4.46;74.76;101112.52;127254;1284;106236;-82
2022/10/13 06:54:32;;;;;;;33.00;19.80;;;;;;;4.61;75.19;101109.11;127121;1285;107503;-80
2022/10/13 06:57:53;;;;;;;30.10;17.70;;;;;;;4.76;75.44;101107.65;127741;1280;106552;-82
2022/10/13 07:01:22;;;;;;;30.30;17.60;;;;;;;4.91;75.64;101104.08;127368;1295;107727;-81
2022/10/13 07:04:43;;;;;;;30.30;16.80;;;;;;;5.11;76.30;101099.52;127155;1280;107903;-82
2022/10/13 07:07:53;;;;;;;29.80;16.00;;;;;;;5.32;76.34;101097.80;127229;1285;106528;-80
2022/10/13 07:11:07;;;;;;;27.10;16.80;;;;;;;5.53;76.72;101100.67;127140;1286;107376;-81
2022/10/13 07:14:15;;;;;;;28.00;16.20;;;;;;;5.72;76.83;101098.23;127431;1303;107025;-75
2022/10/13 07:17:29;;;;;;;27.40;16.50;;;;;;;5.90;76.99;101098.66;127221;1280;107466;-81
2022/10/13 07:20:35;;;;;;;29.80;16.80;;;;;;;6.06;77.04;101097.61;127113;1284;107542;-81
2022/10/13 07:23:41;;;;;;;30.70;18.40;;;;;;;6.20;77.21;101086.02;127282;1285;107588;-82
2022/10/13 07:26:47;;;;;;;27.60;16.10;;;;;;;6.34;77.48;101082.27;127635;1286;107481;-83
2022/10/13 07:29:52;;;;;;;22.50;14.70;;;;;;;6.48;77.41;101090.35;128717;1296;110373;-83
2022/10/13 07:32:58;;;;;;;23.80;14.70;;;;;;;6.63;77.90;101087.48;127123;1293;107494;-78
2022/10/13 07:36:05;;;;;;;25.40;15.20;;;;;;;6.80;77.80;101085.78;127290;1272;107411;-78
2022/10/13 07:39:10;;;;;;;23.30;14.90;;;;;;;6.99;77.90;101079.66;126658;1295;107457;-81
2022/10/13 07:42:16;;;;;;;22.80;14.10;;;;;;;7.16;77.94;101080.92;126991;1295;106773;-81
2022/10/13 07:45:21;;;;;;;24.60;13.80;;;;;;;7.32;77.79;101077.14;127128;1278;107467;-83
2022/10/13 07:48:27;;;;;;;21.40;12.90;;;;;;;7.44;77.82;101070.59;126794;1295;107533;-78
2022/10/13 07:51:33;;;;;;;20.50;12.20;;;;;;;7.53;78.16;101065.14;127126;1285;107676;-84
2022/10/13 07:54:38;;;;;;;24.00;12.20;;;;;;;7.65;77.98;101057.69;127000;1286;107326;-78
2022/10/13 07:57:43;;;;;;;25.00;12.40;;;;;;;7.79;78.12;101060.89;127038;1286;106530;-78
2022/10/13 08:00:57;;;;;;;21.80;11.40;;;;;;;7.96;78.19;101062.67;127166;1280;107585;-78
2022/10/13 08:04:04;;;;;;;19.60;11.90;;;;;;;8.13;78.00;101054.24;126973;1286;107560;-77
2022/10/13 08:07:10;;;;;;;18.20;11.10;;;;;;;8.27;78.08;101046.11;127059;1285;107757;-77
2022/10/13 08:10:15;;;;;;;18.60;10.70;;;;;;;8.41;78.17;101045.00;127227;1286;107533;-78
2022/10/13 08:13:21;;;;;;;18.10;10.40;;;;;;;8.53;78.01;101035.98;127285;1278;107622;-74
2022/10/13 08:16:26;;;;;;;16.40;9.40;;;;;;;8.61;77.92;101030.36;126931;1292;105880;-77
2022/10/13 08:19:32;;;;;;;16.60;8.80;;;;;;;8.71;77.74;101026.38;127160;1280;107371;-79
2022/10/13 08:22:37;;;;;;;17.00;9.00;;;;;;;8.84;77.74;101019.72;127106;1279;107511;-79
2022/10/13 08:25:44;;;;;;;15.80;8.70;;;;;;;8.99;77.75;101020.95;127095;1280;107306;-81
2022/10/13 08:28:49;;;;;;;13.30;8.10;;;;;;;9.14;77.38;101016.33;127021;1284;107554;-79
2022/10/13 08:31:55;;;;;;;15.30;8.50;;;;;;;9.30;77.34;101015.45;127102;1285;107734;-82
2022/10/13 08:35:01;;;;;;;15.50;9.20;;;;;;;9.41;77.30;101015.02;127022;1286;107106;-80
2022/10/13 08:38:06;;;;;;;14.40;8.30;;;;;;;9.54;77.34;101015.07;127003;1280;106404;-79
2022/10/13 08:41:20;;;;;;;15.20;8.70;;;;;;;9.65;76.89;101010.95;127014;1278;107408;-80
2022/10/13 08:44:34;;;;;;;15.20;8.10;;;;;;;9.75;76.86;101012.04;127063;1284;107516;-79
2022/10/13 08:47:46;;;;;;;12.90;6.80;;;;;;;9.84;76.90;101004.55;127021;1285;107543;-80
2022/10/13 08:50:55;;;;;;;15.00;7.50;;;;;;;9.93;76.58;101000.91;127046;1278;107313;-80
2022/10/13 08:54:01;;;;;;;14.80;6.90;;;;;;;10.04;76.56;101004.59;127036;1284;107335;-80
2022/10/13 08:57:08;;;;;;;12.90;6.90;;;;;;;10.19;76.25;101000.50;126957;1285;107500;-79
2022/10/13 09:00:15;;;;;;;13.20;6.90;;;;;;;10.36;76.01;100997.94;126974;1284;107529;-79
2022/10/13 09:03:26;;;;;;;11.50;5.90;;;;;;;10.49;76.18;100996.68;127115;1285;107502;-80
2022/10/13 09:06:36;;;;;;;16.00;5.60;;;;;;;10.59;75.70;100997.90;126978;1279;107631;-82
2022/10/13 09:09:42;;;;;;;14.70;6.00;;;;;;;10.69;75.19;100997.98;127073;1284;107544;-76
2022/10/13 09:12:48;;;;;;;10.90;5.80;;;;;;;10.76;75.05;101003.34;127131;1285;106657;-75
2022/10/13 09:15:55;;;;;;;11.00;5.90;;;;;;;10.84;74.71;101004.64;127154;1286;107513;-74
2022/10/13 09:19:19;;;;;;;8.80;5.10;;;;;;;10.90;74.41;101003.25;127183;1286;107439;-74
2022/10/13 09:22:27;;;;;;;9.90;5.40;;;;;;;10.94;74.43;101002.16;127012;1286;107502;-75
2022/10/13 09:25:41;;;;;;;9.60;5.60;;;;;;;10.99;73.97;101000.98;127084;1287;107852;-74
2022/10/13 09:28:46;;;;;;;12.80;7.30;;;;;;;11.05;74.15;100993.69;127101;1278;107564;-75
2022/10/13 09:31:54;;;;;;;9.90;5.50;;;;;;;11.12;74.33;100990.20;127010;1284;106342;-74
2022/10/13 09:35:20;;;;;;;11.00;5.00;;;;;;;11.18;73.78;100989.96;126917;1278;107754;-73
2022/10/13 09:38:26;;;;;;;10.70;5.30;;;;;;;11.27;73.83;100988.48;126922;1285;106765;-74
2022/10/13 09:41:33;;;;;;;12.30;5.80;;;;;;;11.38;73.58;100985.14;126976;1292;107592;-73
2022/10/13 09:44:38;;;;;;;12.50;5.50;;;;;;;11.50;73.40;100981.77;126970;1280;106571;-70
2022/10/13 09:47:51;;;;;;;12.20;5.10;;;;;;;11.60;73.26;100972.95;127024;1285;107205;-72
2022/10/13 09:50:58;;;;;;;8.50;5.30;;;;;;;11.71;73.03;100963.29;126890;1284;106839;-70
2022/10/13 09:54:05;;;;;;;9.20;4.50;;;;;;;11.79;72.76;100963.79;126886;1285;107535;-70
2022/10/13 09:57:16;;;;;;;8.30;4.10;;;;;;;11.85;72.63;100959.07;126854;1279;107414;-69
2022/10/13 10:00:24;;;;;;;9.10;4.40;;;;;;;11.91;72.49;100953.43;126772;1285;108133;-70
2022/10/13 10:03:33;;;;;;;9.20;4.20;;;;;;;11.97;72.01;100948.58;126754;1285;107292;-71
2022/10/13 10:06:40;;;;;;;8.40;3.80;;;;;;;12.02;71.65;100940.98;127045;1279;107524;-71
2022/10/13 10:09:48;;;;;;;8.90;3.90;;;;;;;12.08;71.54;100932.89;126805;1280;107232;-71
2022/10/13 10:12:56;;;;;;;7.90;3.50;;;;;;;12.13;71.42;100924.05;126850;1278;108115;-71
2022/10/13 10:16:07;;;;;;;7.40;3.50;;;;;;;12.17;70.99;100923.10;126775;1284;108095;-71
2022/10/13 10:19:22;;;;;;;11.30;4.10;;;;;;;12.21;71.07;100921.55;126768;1285;108054;-72
2022/10/13 10:22:37;;;;;;;10.30;3.50;;;;;;;12.27;70.92;100920.19;127044;1280;106506;-72
2022/10/13 10:25:49;;;;;;;8.60;3.10;;;;;;;12.31;69.92;100916.23;126978;1279;108071;-71
2022/10/13 10:29:15;;;;;;;6.80;2.80;;;;;;;12.34;70.56;100911.82;126945;1292;106426;-73
2022/10/13 10:32:42;;;;;;;8.70;3.60;;;;;;;12.39;70.35;100902.05;126820;1286;107521;-71
2022/10/13 10:35:55;;;;;;;7.20;3.10;;;;;;;12.45;70.26;100900.94;126935;1272;108341;-72
2022/10/13 10:39:08;;;;;;;7.60;3.20;;;;;;;12.51;69.70;100902.52;126918;1284;131749;-72
2022/10/13 10:42:31;;;;;;;8.10;3.10;;;;;;;12.54;69.54;100905.96;126934;1279;107628;-73
2022/10/13 10:45:39;;;;;;;8.30;3.30;;;;;;;12.58;69.59;100899.12;126941;1278;107496;-75
2022/10/13 10:48:46;;;;;;;7.70;3.60;;;;;;;12.62;69.06;100893.66;126866;1285;107398;-73
2022/10/13 10:51:52;;;;;;;6.20;3.30;;;;;;;12.64;68.72;100887.39;126978;1286;107502;-72
2022/10/13 10:55:10;;;;;;;6.50;3.30;;;;;;;12.68;69.03;100882.15;127078;1285;107106;-73
2022/10/13 10:58:27;;;;;;;6.30;3.20;;;;;;;12.73;68.77;100878.55;126991;1286;105781;-74
2022/10/13 11:01:41;;;;;;;7.10;3.40;;;;;;;12.77;68.47;100875.35;127397;1284;107463;-71
2022/10/13 11:04:49;;;;;;;6.70;3.40;;;;;;;12.80;68.28;100874.48;126848;1278;108020;-72
2022/10/13 11:07:59;;;;;;;8.80;4.20;;;;;;;12.83;68.34;100870.32;126919;1280;107988;-71
2022/10/13 11:11:36;;;;;;;6.40;3.10;;;;;;;12.85;67.74;100870.05;126988;1280;107379;-73
2022/10/13 11:14:45;;;;;;;8.80;3.40;;;;;;;12.90;67.97;100866.20;127036;1278;108871;-73
2022/10/13 11:17:51;;;;;;;6.50;3.30;;;;;;;12.92;67.62;100856.18;127739;1278;107868;-73
2022/10/13 11:21:00;;;;;;;37.20;24.10;;;;;;;12.95;67.61;100849.41;127190;1278;107736;-74
2022/10/13 11:24:28;;;;;;;129.50;116.20;;;;;;;13.02;67.28;100845.77;127245;1285;107553;-73
2022/10/13 11:27:43;;;;;;;25.90;17.60;;;;;;;13.06;67.15;100837.84;127206;1286;108486;-72
2022/10/13 11:30:51;;;;;;;20.40;16.90;;;;;;;13.09;67.47;100833.21;127109;1279;108023;-73
2022/10/13 11:33:59;;;;;;;13.60;9.30;;;;;;;13.13;67.19;100834.21;127082;1279;107512;-73
2022/10/13 11:37:16;;;;;;;30.80;25.80;;;;;;;13.15;66.79;100826.57;127410;1285;109515;-73
2022/10/13 11:40:32;;;;;;;22.80;16.70;;;;;;;13.16;66.87;100826.98;127112;1275;106555;-73
2022/10/13 11:43:50;;;;;;;14.50;10.20;;;;;;;13.18;66.43;100818.58;127010;1285;107701;-73
2022/10/13 11:47:07;;;;;;;38.00;26.40;;;;;;;13.18;66.15;100813.41;127153;1280;107304;-73
2022/10/13 11:50:22;;;;;;;35.80;25.60;;;;;;;13.20;66.34;100810.11;127213;1285;107441;-73
2022/10/13 11:53:33;;;;;;;65.10;53.20;;;;;;;13.24;66.49;100810.48;126972;1286;107349;-73
2022/10/13 11:56:48;;;;;;;39.80;35.60;;;;;;;13.26;66.28;100813.28;127307;1280;106618;-73
2022/10/13 11:59:56;;;;;;;20.70;18.20;;;;;;;13.27;66.16;100810.81;127041;1280;107473;-73
2022/10/13 12:03:05;;;;;;;20.40;14.40;;;;;;;13.28;65.95;100806.31;126971;1278;107530;-73
2022/10/13 12:06:32;;;;;;;19.80;14.50;;;;;;;13.28;66.14;100807.13;127054;1278;107368;-74
2022/10/13 12:09:48;;;;;;;10.50;5.70;;;;;;;13.30;65.99;100810.69;127086;1279;107599;-73
2022/10/13 12:12:55;;;;;;;31.80;27.80;;;;;;;13.32;65.67;100799.34;127121;1285;106409;-72
2022/10/13 12:16:04;;;;;;;13.20;9.00;;;;;;;13.33;65.72;100787.55;126993;1278;107514;-74
2022/10/13 12:19:21;;;;;;;11.10;9.70;;;;;;;13.36;65.99;100787.23;126847;1281;107333;-74
2022/10/13 12:22:27;;;;;;;12.90;7.20;;;;;;;13.40;65.59;100794.90;127076;1285;107369;-73
2022/10/13 12:25:33;;;;;;;8.60;4.80;;;;;;;13.43;65.18;100793.05;127045;1279;107501;-71
2022/10/13 12:28:49;;;;;;;7.50;4.20;;;;;;;13.45;65.18;100787.66;127034;1278;107503;-70
2022/10/13 12:31:57;;;;;;;8.70;5.80;;;;;;;13.45;65.24;100778.11;127007;1280;107483;-72
2022/10/13 12:35:19;;;;;;;28.40;21.20;;;;;;;13.47;65.70;100769.36;127154;1279;107570;-73
2022/10/13 12:38:25;;;;;;;138.10;100.30;;;;;;;13.49;65.27;100767.14;127062;1279;107664;-74
2022/10/13 12:41:34;;;;;;;39.20;25.30;;;;;;;13.52;65.19;100767.96;127023;1286;107349;-73
2022/10/13 12:44:40;;;;;;;34.10;21.60;;;;;;;13.55;64.69;100765.43;126887;1278;107452;-71
2022/10/13 12:47:53;;;;;;;91.20;59.70;;;;;;;13.56;64.87;100765.52;127248;1285;107474;-72
2022/10/13 12:51:12;;;;;;;45.50;32.60;;;;;;;13.56;64.75;100759.80;127126;1278;107349;-71
2022/10/13 12:54:24;;;;;;;58.50;50.80;;;;;;;13.58;64.79;100758.61;126992;1279;107529;-74
2022/10/13 12:57:37;;;;;;;113.80;86.00;;;;;;;13.58;64.56;100755.33;127104;1286;107339;-71
2022/10/13 13:00:42;;;;;;;74.60;61.50;;;;;;;13.59;64.72;100745.77;127155;1278;107505;-73
2022/10/13 13:03:56;;;;;;;77.20;59.50;;;;;;;13.59;64.61;100746.45;126996;1284;108007;-73
2022/10/13 13:07:04;;;;;;;17.70;12.50;;;;;;;13.58;64.65;100740.85;127020;1286;107404;-74
2022/10/13 13:10:18;;;;;;;18.80;15.00;;;;;;;13.58;64.53;100735.81;126993;1278;106477;-73
2022/10/13 13:13:25;;;;;;;49.40;35.20;;;;;;;13.60;64.25;100732.98;126881;1278;106524;-73
2022/10/13 13:16:31;;;;;;;37.80;25.30;;;;;;;13.60;64.13;100727.45;127123;1275;107533;-76
2022/10/13 13:19:37;;;;;;;144.40;101.40;;;;;;;13.60;63.86;100729.73;126953;1284;107514;-71
2022/10/13 13:22:42;;;;;;;154.50;107.70;;;;;;;13.60;63.82;100730.49;126942;1279;107405;-73
2022/10/13 13:25:48;;;;;;;280.30;209.70;;;;;;;13.59;63.81;100726.09;126813;1286;107529;-74
2022/10/13 13:28:55;;;;;;;41.70;29.70;;;;;;;13.59;64.09;100723.96;126815;1296;107380;-74
2022/10/13 13:32:01;;;;;;;23.40;16.50;;;;;;;13.59;63.99;100718.94;126867;1282;107610;-74
2022/10/13 13:35:07;;;;;;;15.80;11.30;;;;;;;13.58;63.99;100722.78;126923;1286;107591;-76
2022/10/13 13:38:12;;;;;;;16.70;12.90;;;;;;;13.56;63.71;100719.39;126824;1295;108623;-75
2022/10/13 13:41:19;;;;;;;46.90;40.40;;;;;;;13.55;63.66;100717.95;126849;1294;107432;-74
2022/10/13 13:44:24;;;;;;;37.50;27.40;;;;;;;13.53;63.68;100717.43;126899;1296;107503;-74
2022/10/13 13:47:30;;;;;;;142.30;86.70;;;;;;;13.52;63.67;100713.44;126850;1286;107381;-75
2022/10/13 13:50:37;;;;;;;94.80;58.60;;;;;;;13.51;63.67;100711.58;126848;1296;107512;-74
2022/10/13 13:53:43;;;;;;;76.50;45.10;;;;;;;13.50;63.67;100712.92;126803;1286;107529;-74
2022/10/13 13:56:51;;;;;;;90.30;56.50;;;;;;;13.49;63.61;100711.42;126828;1295;107487;-74
2022/10/13 13:59:57;;;;;;;53.80;33.10;;;;;;;13.47;63.98;100715.33;126846;1299;107515;-73
2022/10/13 14:03:02;;;;;;;518.70;369.20;;;;;;;13.44;63.62;100716.36;127111;1295;107487;-74
2022/10/13 14:06:08;;;;;;;192.70;118.80;;;;;;;13.42;63.77;100717.32;126853;1296;107495;-75
2022/10/13 14:09:14;;;;;;;237.10;150.80;;;;;;;13.40;63.80;100710.27;127015;1296;107125;-74